Time;durP1;ratioP1;P1;durP2;ratioP2;P2;SDS_P1;SDS_P2;PMS_P1;PMS_P2;Temp;Humidity;BMP_temperature;BMP_pressure;BME280_temperature;BME280_humidity;BME280_pressure;Samples;Min_cycle;Max_cycle;Signal;HPM_P1;HPM_P2
2024/01/21 00:02:32;;;;;;;0.00;0.00;;;;;;;-3.26;67.91;102483.44;15738035;28;20103;-50
2024/01/21 00:10:10;;;;;;;0.08;0.08;;;;;;;-3.65;68.80;102478.38;15728031;28;20041;-50
2024/01/21 00:17:48;;;;;;;0.05;0.05;;;;;;;-3.50;68.26;102467.09;15676109;28;20132;-50
2024/01/21 00:25:23;;;;;;;0.08;0.08;;;;;;;-3.80;68.23;102463.38;15727231;28;20150;-52
2024/01/21 00:32:58;;;;;;;0.13;0.13;;;;;;;-3.61;67.54;102461.56;15736304;28;20045;-53
2024/01/21 00:40:33;;;;;;;0.10;0.10;;;;;;;-3.58;66.83;102464.03;15737401;28;20405;-48
2024/01/21 00:48:10;;;;;;;0.00;0.00;;;;;;;-3.63;66.28;102450.31;15721198;28;20041;-49
2024/01/21 00:55:44;;;;;;;0.10;0.10;;;;;;;-3.64;67.07;102440.69;15735660;28;20148;-50
2024/01/21 01:03:19;;;;;;;0.68;0.47;;;;;;;-3.78;67.03;102440.53;15731048;28;20037;-54
2024/01/21 01:10:54;;;;;;;0.00;0.00;;;;;;;-4.19;67.56;102428.53;15798319;22;20079;-48
2024/01/21 01:18:28;;;;;;;0.00;0.00;;;;;;;-4.08;68.72;102419.28;15795533;28;20044;-45
2024/01/21 01:26:03;;;;;;;0.00;0.00;;;;;;;-4.28;68.01;102413.25;15777393;28;20408;-48
2024/01/21 01:33:36;;;;;;;0.00;0.00;;;;;;;-4.40;69.12;102432.16;15778500;28;20128;-49
2024/01/21 01:41:13;;;;;;;0.10;0.10;;;;;;;-4.72;70.36;102417.91;15782018;28;20048;-44
2024/01/21 01:48:49;;;;;;;0.10;0.10;;;;;;;-4.41;68.52;102415.59;15756980;28;20405;-50
2024/01/21 01:56:24;;;;;;;0.00;0.00;;;;;;;-4.47;69.25;102401.94;15798789;28;20036;-47
2024/01/21 02:04:00;;;;;;;0.00;0.00;;;;;;;-4.26;67.52;102403.50;15793746;28;20128;-45
2024/01/21 02:11:40;;;;;;;1.20;1.10;;;;;;;-4.62;68.15;102399.09;15772761;28;20051;-47
2024/01/21 02:19:30;;;;;;;0.10;0.10;;;;;;;-4.55;68.50;102393.56;15787115;28;20103;-44
2024/01/21 02:27:05;;;;;;;0.00;0.00;;;;;;;-4.97;68.17;102405.09;15804694;28;20036;-47
2024/01/21 02:34:41;;;;;;;0.10;0.10;;;;;;;-4.44;66.87;102388.66;15804383;28;20051;-45
2024/01/21 02:42:18;;;;;;;0.10;0.10;;;;;;;-5.11;68.18;102382.16;15795184;28;20097;-45
2024/01/21 02:49:54;;;;;;;0.10;0.10;;;;;;;-4.95;67.34;102361.34;15777374;28;20032;-49
2024/01/21 02:57:33;;;;;;;0.00;0.00;;;;;;;-5.06;67.24;102355.75;15786784;28;20169;-48
2024/01/21 03:05:07;;;;;;;0.03;0.03;;;;;;;-4.63;65.70;102359.88;15781231;28;20110;-47
2024/01/21 03:12:44;;;;;;;0.80;0.75;;;;;;;-4.61;65.59;102365.91;15800897;28;20127;-48
2024/01/21 03:20:20;;;;;;;0.00;0.00;;;;;;;-4.68;65.95;102369.72;15762104;28;20052;-45
2024/01/21 03:27:56;;;;;;;0.00;0.00;;;;;;;-4.85;64.39;102373.09;15801638;28;20037;-48
2024/01/21 03:35:29;;;;;;;0.52;0.52;;;;;;;-4.97;65.42;102378.91;15795632;28;20050;-50
2024/01/21 03:43:05;;;;;;;0.00;0.00;;;;;;;-4.94;64.72;102373.56;15718589;28;20131;-49
2024/01/21 03:50:42;;;;;;;0.50;0.47;;;;;;;-4.75;64.30;102378.78;15767984;28;20047;-48
2024/01/21 03:58:18;;;;;;;0.10;0.10;;;;;;;-4.73;64.51;102371.69;15799258;28;20040;-48
2024/01/21 04:05:53;;;;;;;0.15;0.15;;;;;;;-5.01;64.30;102370.34;15756552;28;20040;-50
2024/01/21 04:13:31;;;;;;;0.10;0.10;;;;;;;-4.98;64.50;102358.91;15736360;28;20091;-44
2024/01/21 04:21:09;;;;;;;2.08;1.52;;;;;;;-5.04;64.33;102346.91;15752615;28;20461;-49
2024/01/21 04:28:44;;;;;;;0.10;0.10;;;;;;;-4.82;64.40;102331.06;15797384;28;20047;-50
2024/01/21 04:36:23;;;;;;;0.00;0.00;;;;;;;-4.74;64.27;102304.53;15795792;28;20044;-45
2024/01/21 04:44:01;;;;;;;0.10;0.10;;;;;;;-4.38;63.45;102315.00;15796767;28;20028;-49
2024/01/21 04:51:37;;;;;;;0.00;0.00;;;;;;;-4.03;61.98;102339.47;15788146;28;20048;-50
2024/01/21 04:59:12;;;;;;;1.20;1.10;;;;;;;-4.29;63.50;102330.28;15797169;28;20039;-48
2024/01/21 05:06:45;;;;;;;0.00;0.00;;;;;;;-4.33;62.75;102333.97;15753835;28;20118;-47
2024/01/21 05:14:20;;;;;;;0.00;0.00;;;;;;;-4.58;63.69;102325.59;15716459;28;20148;-46
2024/01/21 05:21:55;;;;;;;0.10;0.10;;;;;;;-4.56;64.23;102331.63;15733826;28;20567;-47
2024/01/21 05:29:34;;;;;;;0.73;0.70;;;;;;;-4.06;62.76;102321.25;15715195;28;20496;-47
2024/01/21 05:37:08;;;;;;;0.10;0.10;;;;;;;-3.38;61.01;102323.91;15750441;28;20428;-46
2024/01/21 05:44:45;;;;;;;0.08;0.08;;;;;;;-3.29;60.34;102318.16;15796067;28;20040;-45
2024/01/21 05:52:19;;;;;;;0.43;0.43;;;;;;;-3.86;62.39;102291.41;15770316;28;20123;-50
2024/01/21 05:59:59;;;;;;;0.00;0.00;;;;;;;-4.02;62.91;102277.38;15761148;28;20044;-47
2024/01/21 06:07:41;;;;;;;0.00;0.00;;;;;;;-4.05;62.15;102275.78;15744984;28;20071;-48
2024/01/21 06:15:19;;;;;;;0.00;0.00;;;;;;;-4.05;63.27;102267.06;15731900;28;20033;-45
2024/01/21 06:22:53;;;;;;;0.10;0.10;;;;;;;-3.91;62.64;102273.28;15755107;28;20065;-44
2024/01/21 06:30:29;;;;;;;0.15;0.15;;;;;;;-3.82;62.31;102266.72;15779696;28;20043;-44
2024/01/21 06:38:03;;;;;;;0.10;0.10;;;;;;;-3.53;61.27;102282.72;15786492;28;20488;-48
2024/01/21 06:45:44;;;;;;;0.10;0.10;;;;;;;-3.37;61.36;102270.44;15799295;28;20192;-45
2024/01/21 06:53:18;;;;;;;0.10;0.10;;;;;;;-3.29;61.47;102268.28;15767020;28;20400;-45
2024/01/21 07:00:53;;;;;;;0.00;0.00;;;;;;;-3.55;62.53;102253.91;15785135;28;20352;-48
2024/01/21 07:08:26;;;;;;;0.10;0.10;;;;;;;-3.34;60.92;102238.78;15768660;22;20044;-50
2024/01/21 07:16:02;;;;;;;0.05;0.05;;;;;;;-3.10;60.44;102247.09;15868831;28;20610;-49
2024/01/21 07:23:38;;;;;;;0.00;0.00;;;;;;;-3.18;60.83;102238.78;15851312;28;20102;-53
2024/01/21 07:31:13;;;;;;;1.33;0.85;;;;;;;-3.23;60.03;102241.66;15873618;28;20442;-49
2024/01/21 07:38:46;;;;;;;0.00;0.00;;;;;;;-2.44;58.03;102249.47;15870794;28;20040;-54
2024/01/21 07:46:22;;;;;;;4.03;1.52;;;;;;;-2.78;57.91;102228.69;15847532;28;20043;-52
2024/01/21 07:53:55;;;;;;;3.20;1.13;;;;;;;-2.70;57.33;102234.38;15843171;28;20039;-51
2024/01/21 08:01:31;;;;;;;0.10;0.10;;;;;;;-2.37;57.12;102221.06;15828929;28;20036;-53
2024/01/21 08:09:04;;;;;;;0.40;0.32;;;;;;;-2.79;56.33;102188.44;15806433;28;20040;-53
2024/01/21 08:16:39;;;;;;;0.10;0.10;;;;;;;-2.40;54.81;102213.34;15802016;28;20043;-54
2024/01/21 08:24:13;;;;;;;0.10;0.10;;;;;;;-2.18;53.39;102191.88;15784734;28;20119;-53
2024/01/21 08:31:49;;;;;;;0.00;0.00;;;;;;;-1.93;51.69;102178.91;15801563;28;20428;-54
2024/01/21 08:39:23;;;;;;;0.10;0.10;;;;;;;-1.41;49.99;102180.09;15835874;28;20051;-54
2024/01/21 08:46:59;;;;;;;0.05;0.05;;;;;;;-1.56;48.98;102169.59;15825006;28;20562;-54
2024/01/21 08:54:32;;;;;;;0.05;0.05;;;;;;;-1.45;47.63;102154.91;15863555;28;20067;-54
2024/01/21 09:02:07;;;;;;;0.80;0.80;;;;;;;-0.90;46.24;102162.72;15810181;28;20043;-54
2024/01/21 09:09:41;;;;;;;0.00;0.00;;;;;;;-0.46;45.18;102173.91;15828813;28;20043;-49
2024/01/21 09:17:18;;;;;;;0.00;0.00;;;;;;;-0.79;45.60;102167.31;15855237;28;20032;-54
2024/01/21 09:24:51;;;;;;;0.00;0.00;;;;;;;-0.66;44.24;102172.59;15798004;28;20032;-50
2024/01/21 09:32:28;;;;;;;0.00;0.00;;;;;;;-0.33;44.02;102166.81;15806297;28;20040;-51
2024/01/21 09:40:01;;;;;;;0.00;0.00;;;;;;;-0.43;43.61;102163.97;15845737;28;20410;-49
2024/01/21 09:47:38;;;;;;;0.00;0.00;;;;;;;-0.21;43.53;102149.34;15830825;28;20519;-49
2024/01/21 09:55:15;;;;;;;0.43;0.43;;;;;;;-0.20;43.52;102132.53;15864739;28;20070;-52
2024/01/21 10:02:52;;;;;;;0.00;0.00;;;;;;;-0.36;43.21;102111.66;15844968;28;20050;-52
2024/01/21 10:10:31;;;;;;;0.10;0.10;;;;;;;-0.30;43.64;102080.41;15856453;28;20055;-49
2024/01/21 10:18:06;;;;;;;0.00;0.00;;;;;;;-0.11;42.69;102074.69;15855086;28;20072;-50
2024/01/21 10:25:43;;;;;;;0.00;0.00;;;;;;;-0.24;43.20;102073.00;15872943;28;20044;-50
2024/01/21 10:33:22;;;;;;;0.00;0.00;;;;;;;0.05;42.94;102070.94;15854879;28;20028;-51
2024/01/21 10:40:55;;;;;;;0.00;0.00;;;;;;;0.20;43.68;102068.09;15854186;28;20483;-49
2024/01/21 10:48:31;;;;;;;0.00;0.00;;;;;;;0.36;43.21;102082.81;15835868;28;20482;-51
2024/01/21 10:56:06;;;;;;;0.50;0.50;;;;;;;0.13;43.04;102055.41;15818542;28;20043;-53
2024/01/21 11:03:43;;;;;;;0.20;0.20;;;;;;;0.31;42.89;102027.69;15863416;28;20070;-49
2024/01/21 11:11:20;;;;;;;0.00;0.00;;;;;;;0.37;42.53;102019.31;15866894;28;20065;-51
2024/01/21 11:18:58;;;;;;;0.20;0.20;;;;;;;0.57;40.56;102012.56;15851221;28;20040;-52
2024/01/21 11:26:35;;;;;;;2.42;1.05;;;;;;;1.87;39.80;102038.75;15829647;28;20671;-52
2024/01/21 11:34:12;;;;;;;0.00;0.00;;;;;;;1.88;39.81;102035.97;15806880;28;20075;-51
2024/01/21 11:41:46;;;;;;;0.00;0.00;;;;;;;1.24;40.67;101990.75;15864959;28;20361;-53
2024/01/21 11:49:22;;;;;;;0.30;0.30;;;;;;;1.18;39.61;101959.50;15807766;28;20040;-48
2024/01/21 11:56:57;;;;;;;0.00;0.00;;;;;;;1.68;37.86;101899.94;15805013;28;20040;-52
2024/01/21 12:04:32;;;;;;;0.00;0.00;;;;;;;1.97;38.35;101902.03;15792086;28;20098;-51
2024/01/21 12:12:09;;;;;;;0.08;0.08;;;;;;;1.79;38.43;101862.00;15825445;28;20047;-49
2024/01/21 12:19:45;;;;;;;0.00;0.00;;;;;;;1.71;38.92;101867.91;15803441;28;20040;-53
2024/01/21 12:27:19;;;;;;;0.00;0.00;;;;;;;1.77;39.37;101901.84;15804087;28;20116;-50
2024/01/21 12:34:54;;;;;;;;;;;;;;;1.81;38.21;101864.50;15803861;28;20040;-50
2024/01/21 12:42:28;;;;;;;0.28;0.28;;;;;;;1.90;38.93;101877.84;15803240;28;19928;-48
2024/01/21 12:50:04;;;;;;;0.05;0.05;;;;;;;2.03;38.38;101828.19;15851893;28;20044;-49
2024/01/21 12:57:37;;;;;;;0.00;0.00;;;;;;;2.16;37.35;101822.72;15865382;28;20066;-49
2024/01/21 13:05:14;;;;;;;0.40;0.40;;;;;;;2.27;37.45;101793.50;15838798;28;20165;-52
2024/01/21 13:12:47;;;;;;;0.00;0.00;;;;;;;2.08;37.77;101729.00;15802442;28;20052;-53
2024/01/21 13:20:22;;;;;;;0.28;0.20;;;;;;;2.29;38.82;101827.84;15801762;28;20050;-51
2024/01/21 13:28:06;;;;;;;0.00;0.00;;;;;;;2.13;39.33;101787.72;15782710;28;20036;-50
2024/01/21 13:35:43;;;;;;;0.00;0.00;;;;;;;2.20;39.38;101765.03;15806617;28;20047;-52
2024/01/21 13:43:17;;;;;;;0.00;0.00;;;;;;;2.39;38.77;101775.75;15872508;28;20039;-53
2024/01/21 13:50:51;;;;;;;;;;;;;;;2.28;39.12;101751.97;15798957;28;20036;-54
2024/01/21 13:58:25;;;;;;;0.00;0.00;;;;;;;2.23;40.32;101746.22;15808867;28;19927;-50
2024/01/21 14:05:59;;;;;;;;;;;;;;;2.10;40.22;101724.41;15814440;28;20032;-50
2024/01/21 14:13:34;;;;;;;0.00;0.00;;;;;;;2.13;41.88;101743.53;15817940;28;20565;-52
2024/01/21 14:21:09;;;;;;;0.10;0.10;;;;;;;2.17;41.84;101755.53;15810468;28;20048;-51
2024/01/21 14:28:47;;;;;;;0.00;0.00;;;;;;;1.89;42.37;101786.16;15856331;28;20055;-54
2024/01/21 14:36:23;;;;;;;0.00;0.00;;;;;;;1.52;43.17;101716.91;15873351;28;20031;-51
2024/01/21 14:43:57;;;;;;;1.55;0.55;;;;;;;1.89;43.31;101746.44;15859851;28;20044;-52
2024/01/21 14:51:32;;;;;;;0.10;0.10;;;;;;;2.06;43.47;101726.50;15870510;28;20445;-52
2024/01/21 14:59:07;;;;;;;0.10;0.10;;;;;;;2.10;43.26;101725.25;15871492;28;20067;-50
2024/01/21 15:06:43;;;;;;;0.10;0.10;;;;;;;1.94;44.22;101736.31;15832781;28;20040;-50
2024/01/21 15:14:19;;;;;;;0.00;0.00;;;;;;;1.74;45.55;101737.16;15806928;28;20042;-49
2024/01/21 15:21:54;;;;;;;0.10;0.10;;;;;;;2.15;44.97;101746.06;15806596;28;20040;-50
2024/01/21 15:29:27;;;;;;;0.00;0.00;;;;;;;2.03;44.76;101743.47;15806217;28;20080;-53
2024/01/21 15:37:04;;;;;;;0.00;0.00;;;;;;;2.24;45.95;101750.56;15826603;28;20042;-51
2024/01/21 15:44:39;;;;;;;0.00;0.00;;;;;;;2.07;46.32;101745.88;15863731;28;20040;-52
2024/01/21 15:52:14;;;;;;;0.20;0.20;;;;;;;1.98;47.39;101752.78;15805577;28;20050;-52
2024/01/21 15:59:48;;;;;;;0.00;0.00;;;;;;;1.94;47.40;101746.88;15805543;28;20116;-55
2024/01/21 16:07:23;;;;;;;;;;;;;;;1.67;48.84;101757.13;15809440;28;20044;-53
2024/01/21 16:14:57;;;;;;;0.00;0.00;;;;;;;1.65;49.18;101756.44;15804888;28;19924;-53
2024/01/21 16:22:33;;;;;;;1.02;0.40;;;;;;;1.67;49.39;101757.13;15804956;28;20512;-52
2024/01/21 16:30:08;;;;;;;0.40;0.40;;;;;;;1.95;49.13;101763.59;15804022;28;20037;-50
2024/01/21 16:37:43;;;;;;;0.00;0.00;;;;;;;1.73;49.48;101762.78;15827434;28;20039;-52
2024/01/21 16:45:20;;;;;;;0.00;0.00;;;;;;;1.96;48.99;101723.78;15857655;28;20037;-51
2024/01/21 16:53:03;;;;;;;0.00;0.00;;;;;;;1.86;50.08;101727.31;15803186;28;20037;-56
2024/01/21 17:00:42;;;;;;;0.10;0.10;;;;;;;1.88;50.79;101720.94;15784399;28;20064;-53
2024/01/21 17:08:16;;;;;;;0.03;0.03;;;;;;;2.12;50.14;101728.59;15802577;28;20043;-52
2024/01/21 17:15:50;;;;;;;0.08;0.08;;;;;;;2.12;49.26;101725.97;15783504;28;20485;-56
2024/01/21 17:23:26;;;;;;;1.02;0.55;;;;;;;2.59;48.75;101741.38;15804132;28;20128;-53
2024/01/21 17:31:00;;;;;;;1.45;0.52;;;;;;;2.60;49.02;101751.00;15805029;28;20044;-55
2024/01/21 17:38:35;;;;;;;0.00;0.00;;;;;;;2.60;49.29;101761.59;15833487;28;20051;-52
2024/01/21 17:46:12;;;;;;;0.40;0.38;;;;;;;2.80;49.11;101758.06;15832094;28;20511;-51
2024/01/21 17:53:49;;;;;;;0.00;0.00;;;;;;;2.68;49.67;101765.28;15849324;28;20105;-51
2024/01/21 18:01:23;;;;;;;0.88;0.25;;;;;;;2.62;49.98;101752.56;15845680;28;20048;-51
2024/01/21 18:08:58;;;;;;;0.03;0.03;;;;;;;2.91;49.58;101738.56;15807066;28;20047;-51
2024/01/21 18:16:33;;;;;;;2.85;0.50;;;;;;;2.85;50.52;101737.28;15846238;28;20512;-51
2024/01/21 18:24:08;;;;;;;0.03;0.03;;;;;;;2.94;51.02;101733.81;15862673;28;20042;-52
2024/01/21 18:31:41;;;;;;;0.70;0.43;;;;;;;2.96;51.79;101739.81;15828824;28;20044;-49
2024/01/21 18:39:16;;;;;;;0.00;0.00;;;;;;;2.90;52.86;101745.69;15870683;28;20046;-53
2024/01/21 18:46:52;;;;;;;0.00;0.00;;;;;;;2.70;53.22;101733.31;15833176;28;20443;-52
2024/01/21 18:54:27;;;;;;;0.13;0.13;;;;;;;2.83;53.10;101730.44;15809908;28;20055;-53
2024/01/21 19:02:01;;;;;;;0.00;0.00;;;;;;;2.58;54.21;101706.09;15808816;28;20039;-53
2024/01/21 19:09:36;;;;;;;0.70;0.70;;;;;;;2.62;55.05;101706.66;15807706;28;20064;-50
2024/01/21 19:17:10;;;;;;;0.00;0.00;;;;;;;2.62;54.07;101681.00;15807677;28;20040;-51
2024/01/21 19:24:45;;;;;;;0.32;0.32;;;;;;;2.77;54.23;101670.84;15800552;28;20047;-53
2024/01/21 19:32:19;;;;;;;0.10;0.10;;;;;;;2.59;54.96;101661.88;15869657;28;20399;-49
2024/01/21 19:39:55;;;;;;;0.43;0.43;;;;;;;2.64;54.68;101663.13;15847796;28;20073;-51
2024/01/21 19:47:30;;;;;;;0.00;0.00;;;;;;;2.80;54.47;101658.16;15818551;28;20040;-50
2024/01/21 19:55:06;;;;;;;0.05;0.05;;;;;;;3.04;53.86;101639.19;15783506;28;20050;-52
2024/01/21 20:02:40;;;;;;;0.00;0.00;;;;;;;2.91;54.95;101616.59;15788188;28;20051;-49
2024/01/21 20:10:15;;;;;;;0.40;0.40;;;;;;;2.72;55.09;101602.34;15800546;28;20484;-54
2024/01/21 20:17:52;;;;;;;0.00;0.00;;;;;;;2.67;55.33;101622.28;15782155;28;20040;-52
2024/01/21 20:25:28;;;;;;;0.10;0.10;;;;;;;2.64;55.70;101622.53;15781361;28;20489;-53
2024/01/21 20:33:01;;;;;;;0.10;0.10;;;;;;;2.62;55.53;101598.00;15799215;28;20544;-52
2024/01/21 20:40:37;;;;;;;0.50;0.47;;;;;;;2.75;56.12;101601.19;15827990;28;20110;-53
2024/01/21 20:48:11;;;;;;;0.00;0.00;;;;;;;2.69;56.31;101602.59;15830856;27;20040;-52
2024/01/21 20:55:46;;;;;;;0.00;0.00;;;;;;;2.55;56.86;101603.81;15797956;28;20690;-49
2024/01/21 21:03:19;;;;;;;0.10;0.10;;;;;;;2.43;57.79;101601.47;15803656;28;20123;-53
2024/01/21 21:10:55;;;;;;;0.10;0.10;;;;;;;2.56;58.02;101588.75;15798974;28;20051;-54
2024/01/21 21:18:29;;;;;;;0.00;0.00;;;;;;;2.48;58.36;101586.81;15781244;28;20412;-53
2024/01/21 21:26:04;;;;;;;0.00;0.00;;;;;;;2.64;58.58;101559.75;15800619;28;20040;-54
2024/01/21 21:33:38;;;;;;;0.10;0.10;;;;;;;2.45;59.85;101551.81;15853434;28;20562;-53
2024/01/21 21:41:14;;;;;;;0.00;0.00;;;;;;;2.35;60.78;101549.13;15860385;28;20113;-52
2024/01/21 21:48:47;;;;;;;0.28;0.28;;;;;;;2.36;61.56;101512.88;15834965;28;20071;-53
2024/01/21 21:56:23;;;;;;;0.00;0.00;;;;;;;2.29;62.55;101508.16;15859376;28;20044;-56
2024/01/21 22:03:57;;;;;;;0.17;0.17;;;;;;;2.34;63.07;101494.50;15852866;28;20040;-54
2024/01/21 22:11:32;;;;;;;0.10;0.10;;;;;;;2.37;63.79;101499.50;15807656;28;20635;-55
2024/01/21 22:19:09;;;;;;;0.00;0.00;;;;;;;2.34;64.00;101493.66;15867149;28;20035;-54
2024/01/21 22:26:44;;;;;;;0.32;0.28;;;;;;;2.41;64.16;101508.84;15870524;28;20031;-52
2024/01/21 22:34:18;;;;;;;0.00;0.00;;;;;;;2.47;64.32;101502.16;15870729;28;20039;-52
2024/01/21 22:41:52;;;;;;;;;;;;;;;2.74;63.35;101489.03;15870865;28;20372;-53
2024/01/21 22:49:29;;;;;;;0.00;0.00;;;;;;;2.40;64.32;101466.59;15826173;28;20614;-52
2024/01/21 22:57:07;;;;;;;0.25;0.25;;;;;;;2.45;63.93;101445.81;15806078;28;20127;-55
2024/01/21 23:04:41;;;;;;;0.00;0.00;;;;;;;2.39;64.87;101426.03;15819757;28;20589;-52
2024/01/21 23:12:19;;;;;;;0.00;0.00;;;;;;;2.53;64.93;101419.47;15803004;28;20044;-54
2024/01/21 23:19:52;;;;;;;0.00;0.00;;;;;;;2.24;66.19;101424.78;15803541;28;20043;-53
2024/01/21 23:27:30;;;;;;;0.47;0.47;;;;;;;2.44;66.19;101388.50;15804072;28;20040;-56
2024/01/21 23:35:03;;;;;;;0.00;0.00;;;;;;;2.42;66.74;101387.78;15805004;28;20040;-53
2024/01/21 23:42:41;;;;;;;0.25;0.25;;;;;;;2.46;66.75;101387.38;15812554;28;20048;-53
2024/01/21 23:50:15;;;;;;;0.75;0.75;;;;;;;2.51;66.72;101348.03;15836251;28;20631;-49
2024/01/21 23:57:50;;;;;;;0.05;0.05;;;;;;;2.25;67.61;101305.44;15866690;28;20040;-48
